Metar z pełnej godziny Komunikat METAR ze strony awiacja.imgw.pl Metar G00 EPLL METAR EPLL 200400Z 26012KT 9999 SCT017 BKN025 05/02 Q1015 =